METAR OBSERVATIONS
Looking Back 6 hours

  • KPBF 121853Z AUTO 33010G17KT 10SM CLR 11/M08 A3023 RMK AO2 SLP237 T01061078 =
  • KPBF 121753Z AUTO 35010G16KT 10SM CLR 10/M07 A3026 RMK AO2 SLP245 T01001072 10100 20061 58002 =
  • KPBF 121653Z AUTO 34012G20KT 10SM CLR 09/M06 A3029 RMK AO2 SLP256 T00891061 =
  • KPBF 121553Z AUTO 35015G22KT 10SM CLR 08/M07 A3028 RMK AO2 PKWND 34028/1455 SLP252 T00781067 =
  • KPBF 121453Z AUTO 34016G28KT 10SM CLR 07/M04 A3026 RMK AO2 PKWND 33028/1444 SLP247 T00721039 51027 =
    ________________________________________